Time;durP1;ratioP1;P1;durP2;ratioP2;P2;SDS_P1;SDS_P2;PMS_P1;PMS_P2;Temp;Humidity;BMP_temperature;BMP_pressure;BME280_temperature;BME280_humidity;BME280_pressure;Samples;Min_cycle;Max_cycle;Signal;HPM_P1;HPM_P2
2023/07/28 00:02:10;;;;;;;6.97;3.60;;;19.00;99.90;;;;;;4962848;28;20336;-84
2023/07/28 00:04:37;;;;;;;11.27;3.83;;;19.00;99.90;;;;;;4963660;28;20299;-83
2023/07/28 00:07:03;;;;;;;9.83;3.40;;;19.00;99.90;;;;;;4964198;28;20213;-84
2023/07/28 00:09:29;;;;;;;7.20;3.20;;;19.00;99.90;;;;;;4962751;28;20236;-83
2023/07/28 00:12:03;;;;;;;24.33;4.03;;;19.00;99.90;;;;;;4965356;28;20239;-83
2023/07/28 00:14:28;;;;;;;16.77;3.93;;;19.00;99.90;;;;;;4963388;28;20232;-84
2023/07/28 00:16:56;;;;;;;20.17;4.63;;;19.00;99.90;;;;;;4946087;28;20336;-84
2023/07/28 00:19:22;;;;;;;9.93;3.67;;;19.00;99.90;;;;;;4946368;28;20236;-84
2023/07/28 00:21:48;;;;;;;10.63;4.03;;;19.00;99.90;;;;;;4962918;28;20220;-84
2023/07/28 00:24:15;;;;;;;14.03;3.37;;;19.10;99.90;;;;;;4963183;28;20673;-83
2023/07/28 00:26:41;;;;;;;4.90;2.97;;;19.10;99.90;;;;;;4963766;28;20603;-83
2023/07/28 00:29:07;;;;;;;6.60;2.77;;;19.10;99.90;;;;;;4963654;28;20220;-84
2023/07/28 00:31:33;;;;;;;12.37;3.87;;;19.10;99.90;;;;;;4947432;28;20246;-83
2023/07/28 00:33:59;;;;;;;11.33;4.30;;;19.10;99.90;;;;;;4962607;28;20315;-84
2023/07/28 00:36:25;;;;;;;7.80;3.13;;;19.10;99.90;;;;;;4962041;28;20772;-84
2023/07/28 00:38:51;;;;;;;13.93;3.63;;;19.00;99.90;;;;;;4964147;28;20268;-84
2023/07/28 00:41:17;;;;;;;8.63;3.40;;;19.10;99.90;;;;;;4961336;28;20587;-84
2023/07/28 00:43:45;;;;;;;8.77;3.00;;;19.10;99.90;;;;;;4962050;28;20221;-84
2023/07/28 00:46:13;;;;;;;16.07;3.23;;;19.10;99.90;;;;;;4962556;28;20239;-84
2023/07/28 00:48:40;;;;;;;9.70;3.10;;;19.10;99.90;;;;;;4969087;28;20231;-84
2023/07/28 00:51:07;;;;;;;11.03;3.37;;;19.10;99.90;;;;;;4947655;28;20233;-84
2023/07/28 00:53:33;;;;;;;8.23;3.27;;;19.10;99.90;;;;;;4947408;28;20224;-83
2023/07/28 00:56:00;;;;;;;5.90;2.37;;;19.10;99.90;;;;;;4963630;28;20232;-84
2023/07/28 00:58:27;;;;;;;14.17;3.07;;;19.10;99.90;;;;;;4961656;28;20228;-83
2023/07/28 01:00:52;;;;;;;10.20;2.93;;;19.10;99.90;;;;;;4960410;28;20249;-83
2023/07/28 01:03:19;;;;;;;9.83;3.97;;;19.10;99.90;;;;;;4960937;28;20725;-83
2023/07/28 01:06:09;;;;;;;10.47;3.10;;;19.10;99.90;;;;;;4962448;28;20216;-84
2023/07/28 01:08:50;;;;;;;6.30;3.20;;;19.00;99.90;;;;;;4962873;28;20654;-84
2023/07/28 01:11:16;;;;;;;8.93;3.87;;;19.10;99.90;;;;;;4963335;28;20469;-84
2023/07/28 01:13:41;;;;;;;9.47;3.00;;;19.00;99.90;;;;;;4947240;28;20773;-84
2023/07/28 01:16:08;;;;;;;13.97;4.00;;;19.00;99.90;;;;;;4945750;28;21183;-83
2023/07/28 01:18:34;;;;;;;5.87;2.63;;;19.00;99.90;;;;;;4962523;28;20687;-84
2023/07/28 01:21:02;;;;;;;8.07;3.43;;;19.10;99.90;;;;;;4963093;28;20181;-86
2023/07/28 01:23:49;;;;;;;8.13;3.83;;;19.00;99.90;;;;;;4962792;28;20339;-84
2023/07/28 01:26:17;;;;;;;8.83;3.40;;;19.10;99.90;;;;;;4962295;28;20282;-83
2023/07/28 01:28:44;;;;;;;10.10;3.77;;;19.10;99.90;;;;;;4967975;28;20229;-85
2023/07/28 01:31:10;;;;;;;21.20;3.27;;;19.00;99.90;;;;;;4961639;28;20224;-86
2023/07/28 01:33:36;;;;;;;13.73;3.77;;;19.00;99.90;;;;;;4961847;28;20266;-85
2023/07/28 01:36:02;;;;;;;17.27;4.60;;;19.00;99.90;;;;;;4962683;28;20569;-84
2023/07/28 01:38:28;;;;;;;11.57;3.73;;;19.00;99.90;;;;;;4961436;28;20323;-85
2023/07/28 01:40:54;;;;;;;7.97;3.10;;;19.00;99.90;;;;;;4943987;28;20225;-85
2023/07/28 01:43:20;;;;;;;8.67;3.00;;;19.00;99.90;;;;;;4945381;28;20700;-85
2023/07/28 01:45:46;;;;;;;6.53;3.53;;;19.00;99.90;;;;;;4947122;28;20704;-85
2023/07/28 01:48:11;;;;;;;13.83;2.73;;;19.00;99.90;;;;;;4962468;28;20208;-84
2023/07/28 01:50:38;;;;;;;8.93;3.10;;;19.00;99.90;;;;;;4960948;28;20734;-85
2023/07/28 01:53:07;;;;;;;9.27;2.70;;;19.00;99.90;;;;;;4962945;28;20709;-85
2023/07/28 01:55:33;;;;;;;9.37;3.20;;;19.00;99.90;;;;;;4961526;28;20231;-85
2023/07/28 01:58:00;;;;;;;7.77;3.70;;;19.00;99.90;;;;;;4945067;28;20228;-84
2023/07/28 02:00:27;;;;;;;12.03;3.30;;;18.90;99.90;;;;;;4960935;28;20197;-85
2023/07/28 02:02:54;;;;;;;9.50;2.50;;;19.00;99.90;;;;;;4961320;28;20196;-84
2023/07/28 02:05:20;;;;;;;6.57;2.80;;;19.00;99.90;;;;;;4961871;28;20255;-84
2023/07/28 02:07:45;;;;;;;13.63;2.97;;;19.00;99.90;;;;;;4944995;28;20702;-85
2023/07/28 02:10:11;;;;;;;6.37;2.93;;;19.00;99.90;;;;;;4963065;28;20960;-85
2023/07/28 02:12:38;;;;;;;14.17;3.00;;;19.00;99.90;;;;;;4959861;28;20232;-84
2023/07/28 02:15:05;;;;;;;11.47;3.37;;;19.00;99.90;;;;;;4961224;28;20638;-84
2023/07/28 02:17:31;;;;;;;13.23;3.03;;;19.00;99.90;;;;;;4961647;28;20232;-85
2023/07/28 02:19:57;;;;;;;6.63;3.23;;;19.00;99.90;;;;;;4962905;28;20217;-85
2023/07/28 02:22:22;;;;;;;8.27;3.40;;;19.00;99.90;;;;;;4962555;28;20693;-85
2023/07/28 02:24:48;;;;;;;6.73;2.03;;;19.00;99.90;;;;;;4946020;28;20964;-85
2023/07/28 02:27:14;;;;;;;8.23;2.67;;;19.00;99.90;;;;;;4963469;28;20193;-85
2023/07/28 02:29:40;;;;;;;8.90;2.93;;;19.00;99.90;;;;;;4951424;28;20529;-84
2023/07/28 02:32:06;;;;;;;8.50;3.40;;;19.00;99.90;;;;;;4965253;28;20227;-85
2023/07/28 02:34:32;;;;;;;7.30;2.57;;;19.00;99.90;;;;;;4960921;28;20678;-84
2023/07/28 02:36:57;;;;;;;19.70;3.63;;;19.00;99.90;;;;;;4947634;28;20282;-84
2023/07/28 02:39:24;;;;;;;5.83;3.30;;;18.90;99.90;;;;;;4959740;28;20197;-84
2023/07/28 02:41:50;;;;;;;8.47;3.13;;;18.90;99.90;;;;;;4960730;28;20512;-85
2023/07/28 02:44:16;;;;;;;8.33;3.30;;;18.90;99.90;;;;;;4960965;28;20679;-84
2023/07/28 02:46:41;;;;;;;8.47;2.97;;;18.80;99.90;;;;;;4961532;28;20271;-84
2023/07/28 02:49:07;;;;;;;7.73;3.13;;;18.90;99.90;;;;;;4959886;28;20227;-85
2023/07/28 02:51:36;;;;;;;12.03;3.20;;;18.90;99.90;;;;;;4943081;28;20315;-84
2023/07/28 02:54:03;;;;;;;9.90;3.57;;;18.90;99.90;;;;;;4947525;28;20295;-85
2023/07/28 02:56:29;;;;;;;11.33;3.50;;;18.90;99.90;;;;;;4961113;28;20220;-84
2023/07/28 02:58:55;;;;;;;12.33;4.00;;;18.90;99.90;;;;;;4961207;28;20226;-85
2023/07/28 03:01:20;;;;;;;8.70;3.27;;;18.90;99.90;;;;;;4959224;28;20232;-84
2023/07/28 03:03:47;;;;;;;15.10;4.13;;;19.00;99.90;;;;;;4960482;28;20698;-85
2023/07/28 03:06:13;;;;;;;3.80;2.40;;;18.90;99.90;;;;;;4958715;28;20385;-85
2023/07/28 03:08:38;;;;;;;5.27;2.40;;;18.90;99.90;;;;;;4929270;28;20992;-84
2023/07/28 03:11:04;;;;;;;10.67;2.60;;;18.90;99.90;;;;;;4959927;28;20227;-85
2023/07/28 03:13:30;;;;;;;6.60;3.13;;;18.90;99.90;;;;;;4959979;28;20244;-85
2023/07/28 03:15:55;;;;;;;11.70;3.03;;;19.00;99.90;;;;;;4959581;28;20746;-84
2023/07/28 03:18:21;;;;;;;6.70;2.60;;;18.90;99.90;;;;;;4950010;28;20726;-85
2023/07/28 03:20:47;;;;;;;3.73;2.00;;;18.90;99.90;;;;;;4959935;28;20263;-84
2023/07/28 03:23:14;;;;;;;5.07;2.50;;;18.90;99.90;;;;;;4959444;28;20233;-85
2023/07/28 03:25:39;;;;;;;6.03;1.97;;;18.90;99.90;;;;;;4964156;28;20588;-85
2023/07/28 03:28:05;;;;;;;7.57;3.03;;;19.00;99.90;;;;;;4963095;28;20701;-85
2023/07/28 03:30:31;;;;;;;2.10;1.80;;;18.90;99.90;;;;;;4954159;28;20335;-85
2023/07/28 03:32:57;;;;;;;4.20;2.60;;;18.90;99.90;;;;;;4951984;28;20231;-84
2023/07/28 03:35:22;;;;;;;7.43;2.03;;;19.00;99.90;;;;;;4963728;28;20817;-85
2023/07/28 03:37:48;;;;;;;6.10;2.83;;;18.90;99.90;;;;;;4963078;28;20232;-85
2023/07/28 03:40:14;;;;;;;6.50;2.30;;;18.90;99.90;;;;;;4950252;28;20221;-84
2023/07/28 03:42:40;;;;;;;19.17;3.40;;;18.90;99.90;;;;;;4946064;28;20311;-85
2023/07/28 03:45:06;;;;;;;3.47;2.10;;;18.90;99.90;;;;;;4963724;28;20196;-85
2023/07/28 03:47:32;;;;;;;2.50;2.13;;;18.90;99.90;;;;;;4961583;28;20275;-84
2023/07/28 03:49:58;;;;;;;2.47;2.27;;;18.80;99.90;;;;;;4964091;28;20311;-85
2023/07/28 03:52:23;;;;;;;7.27;2.80;;;18.80;99.90;;;;;;4962547;28;20232;-83
2023/07/28 03:54:49;;;;;;;8.40;2.53;;;18.80;99.90;;;;;;4947015;28;20220;-83
2023/07/28 03:57:15;;;;;;;3.50;2.47;;;18.80;99.90;;;;;;4964114;28;21016;-83
2023/07/28 03:59:40;;;;;;;7.70;3.30;;;18.80;99.90;;;;;;4964778;28;20188;-84
2023/07/28 04:02:06;;;;;;;7.57;3.63;;;18.70;99.90;;;;;;4962926;28;20220;-84
2023/07/28 04:04:32;;;;;;;4.30;3.47;;;18.70;99.90;;;;;;4962029;28;20235;-84
2023/07/28 04:06:58;;;;;;;6.37;3.43;;;18.70;99.90;;;;;;4962775;28;20219;-85
2023/07/28 04:09:24;;;;;;;6.03;4.07;;;18.70;99.90;;;;;;4950401;28;20547;-85
2023/07/28 04:11:49;;;;;;;7.17;3.47;;;18.70;99.90;;;;;;4963488;28;20192;-85
2023/07/28 04:14:15;;;;;;;3.20;2.90;;;18.70;99.90;;;;;;4962610;28;20323;-85
2023/07/28 04:16:41;;;;;;;7.93;3.83;;;18.70;99.90;;;;;;4950068;28;20233;-85
2023/07/28 04:19:07;;;;;;;8.53;3.30;;;18.70;99.90;;;;;;4966147;28;20213;-85
2023/07/28 04:21:32;;;;;;;4.47;3.33;;;18.70;99.90;;;;;;4961940;28;20231;-85
2023/07/28 04:23:58;;;;;;;5.17;4.03;;;18.70;99.90;;;;;;4963047;28;20192;-85
2023/07/28 04:26:24;;;;;;;4.97;3.67;;;18.60;99.90;;;;;;4962611;28;20335;-84
2023/07/28 04:28:51;;;;;;;7.07;3.47;;;18.60;99.90;;;;;;4962769;28;20224;-84
2023/07/28 04:31:16;;;;;;;3.20;2.90;;;18.60;99.90;;;;;;4944733;28;20298;-85
2023/07/28 04:33:43;;;;;;;4.17;3.70;;;18.50;99.90;;;;;;4967022;28;20690;-85
2023/07/28 04:36:09;;;;;;;4.57;3.60;;;18.60;99.90;;;;;;4963395;28;20181;-85
2023/07/28 04:38:35;;;;;;;8.23;3.90;;;18.60;99.90;;;;;;4945863;28;20223;-84
2023/07/28 04:41:01;;;;;;;4.87;3.57;;;18.60;99.90;;;;;;4961578;28;20220;-84
2023/07/28 04:43:28;;;;;;;5.67;3.80;;;18.60;99.90;;;;;;4962925;28;20319;-85
2023/07/28 04:45:54;;;;;;;6.30;3.77;;;18.60;99.90;;;;;;4963880;28;20212;-85
2023/07/28 04:48:19;;;;;;;7.77;3.50;;;18.60;99.90;;;;;;4945580;28;20235;-84
2023/07/28 04:50:45;;;;;;;7.17;4.20;;;18.60;99.90;;;;;;4963266;28;20701;-85
2023/07/28 04:53:11;;;;;;;8.03;5.13;;;18.70;99.90;;;;;;4944992;28;20232;-84
2023/07/28 04:55:36;;;;;;;7.90;4.40;;;18.70;99.90;;;;;;4962616;28;20236;-84
2023/07/28 04:58:02;;;;;;;5.83;4.10;;;18.80;99.90;;;;;;4961051;28;20221;-84
2023/07/28 05:00:28;;;;;;;5.30;4.23;;;18.70;99.90;;;;;;4961965;28;20193;-85
2023/07/28 05:02:54;;;;;;;7.73;4.17;;;18.80;99.90;;;;;;4963093;28;20225;-85
2023/07/28 05:05:20;;;;;;;10.73;4.90;;;18.80;99.90;;;;;;4961948;28;20229;-85
2023/07/28 05:07:46;;;;;;;4.97;4.30;;;18.90;99.90;;;;;;4963620;28;20259;-84
2023/07/28 05:10:11;;;;;;;9.90;3.87;;;19.00;99.90;;;;;;4961767;28;20232;-87
2023/07/28 05:12:37;;;;;;;10.10;4.97;;;19.00;99.90;;;;;;4961901;28;20247;-83
2023/07/28 05:15:05;;;;;;;5.30;3.80;;;19.00;99.90;;;;;;4965721;28;21044;-84
2023/07/28 05:17:31;;;;;;;6.83;3.17;;;18.90;99.90;;;;;;4962619;28;20661;-86
2023/07/28 05:19:56;;;;;;;7.67;4.20;;;19.00;99.90;;;;;;4962241;28;20887;-82
2023/07/28 05:22:22;;;;;;;10.97;5.30;;;19.00;99.90;;;;;;4943515;28;20868;-83
2023/07/28 05:24:53;;;;;;;8.67;4.80;;;19.10;99.90;;;;;;4963633;28;20232;-83
2023/07/28 05:27:22;;;;;;;7.40;4.27;;;19.10;99.90;;;;;;4961122;28;20181;-84
2023/07/28 05:29:50;;;;;;;11.50;5.40;;;19.10;99.90;;;;;;4943851;28;20276;-84
2023/07/28 05:32:16;;;;;;;9.03;4.80;;;19.10;99.90;;;;;;4954759;28;20255;-84
2023/07/28 05:34:45;;;;;;;6.87;3.80;;;19.10;99.90;;;;;;4961710;28;20721;-84
2023/07/28 05:37:11;;;;;;;7.00;4.57;;;19.10;99.90;;;;;;4952708;28;20757;-83
2023/07/28 05:39:37;;;;;;;8.07;4.53;;;19.00;99.90;;;;;;4945528;28;20221;-83
2023/07/28 05:42:03;;;;;;;6.17;4.67;;;19.00;99.90;;;;;;4962428;28;21116;-84
2023/07/28 05:44:31;;;;;;;5.87;4.10;;;19.00;99.90;;;;;;4959554;28;20308;-83
2023/07/28 05:46:57;;;;;;;5.67;3.87;;;18.90;99.90;;;;;;4960894;28;20224;-85
2023/07/28 05:49:23;;;;;;;6.83;4.43;;;18.90;99.90;;;;;;4965350;28;20228;-85
2023/07/28 05:51:51;;;;;;;7.87;4.67;;;18.90;99.90;;;;;;4952666;28;20232;-84
2023/07/28 05:54:17;;;;;;;7.70;4.63;;;18.90;99.90;;;;;;4947049;28;20231;-85
2023/07/28 05:56:46;;;;;;;6.57;3.97;;;18.80;99.90;;;;;;4933270;28;20652;-85
2023/07/28 05:59:12;;;;;;;7.40;3.93;;;18.80;99.90;;;;;;4962158;28;20581;-86
2023/07/28 06:01:37;;;;;;;6.63;4.20;;;18.80;99.90;;;;;;4945588;28;20230;-85
2023/07/28 06:04:06;;;;;;;5.47;3.33;;;18.80;99.90;;;;;;4957227;28;20224;-85
2023/07/28 06:06:32;;;;;;;6.47;4.33;;;18.80;99.90;;;;;;4960990;28;20223;-86
2023/07/28 06:08:58;;;;;;;7.80;4.53;;;18.90;99.90;;;;;;4966355;28;20185;-85
2023/07/28 06:11:24;;;;;;;7.23;4.30;;;18.80;99.90;;;;;;4961574;28;20345;-84
2023/07/28 06:13:57;;;;;;;9.03;4.23;;;18.80;99.90;;;;;;4959548;28;20291;-85
2023/07/28 06:16:24;;;;;;;6.93;3.80;;;18.90;99.90;;;;;;4967467;28;20279;-85
2023/07/28 06:18:50;;;;;;;7.43;4.77;;;19.00;99.90;;;;;;4964018;28;20221;-86
2023/07/28 06:21:16;;;;;;;9.53;5.03;;;19.00;99.90;;;;;;4946030;28;20677;-85
2023/07/28 06:23:41;;;;;;;7.90;4.60;;;19.00;99.90;;;;;;4965306;28;20188;-84
2023/07/28 06:26:07;;;;;;;7.97;4.47;;;19.00;99.90;;;;;;4965955;28;20282;-86
2023/07/28 06:28:40;;;;;;;5.37;3.63;;;18.90;99.90;;;;;;4951167;28;20217;-85
2023/07/28 06:31:06;;;;;;;11.27;4.40;;;18.90;99.90;;;;;;4965473;28;20239;-86
2023/07/28 06:33:36;;;;;;;5.23;3.50;;;18.90;99.90;;;;;;4934245;28;20559;-85
2023/07/28 06:36:33;;;;;;;5.13;3.13;;;18.80;99.90;;;;;;4953820;28;20204;-86
2023/07/28 06:38:59;;;;;;;6.73;3.23;;;18.90;99.90;;;;;;4945787;28;20658;-86
2023/07/28 06:41:25;;;;;;;6.43;3.63;;;19.00;99.90;;;;;;4945648;28;20220;-85
2023/07/28 06:43:51;;;;;;;4.43;3.53;;;19.00;99.90;;;;;;4959167;28;20232;-85
2023/07/28 06:46:17;;;;;;;3.33;2.03;;;19.00;99.90;;;;;;4929812;28;20232;-85
2023/07/28 06:48:45;;;;;;;6.03;3.73;;;19.00;99.90;;;;;;4944530;28;20229;-86
2023/07/28 06:51:17;;;;;;;6.87;4.17;;;19.10;99.90;;;;;;4956202;28;20233;-85
2023/07/28 06:53:43;;;;;;;6.13;3.83;;;19.20;99.90;;;;;;4945708;28;20761;-85
2023/07/28 06:56:09;;;;;;;3.87;2.97;;;19.20;99.90;;;;;;4965019;28;20299;-86
2023/07/28 06:58:35;;;;;;;5.80;3.50;;;19.10;99.90;;;;;;4964808;28;20253;-85
2023/07/28 07:01:01;;;;;;;8.10;4.13;;;19.10;99.90;;;;;;4966518;28;20319;-85
2023/07/28 07:03:29;;;;;;;4.80;3.33;;;19.20;99.90;;;;;;4964170;28;20274;-86
2023/07/28 07:05:55;;;;;;;5.07;3.47;;;19.30;99.90;;;;;;4964634;28;20843;-86
2023/07/28 07:08:21;;;;;;;6.60;3.20;;;19.50;99.90;;;;;;4964032;28;20588;-86
2023/07/28 07:10:50;;;;;;;6.50;3.30;;;19.50;99.90;;;;;;4950830;28;20212;-85
2023/07/28 07:13:16;;;;;;;6.10;3.60;;;19.40;99.90;;;;;;4963736;28;20335;-84
2023/07/28 07:15:42;;;;;;;6.23;3.77;;;19.50;99.90;;;;;;4963083;28;20243;-85
2023/07/28 07:18:08;;;;;;;7.50;3.20;;;19.60;99.90;;;;;;4965033;28;21100;-82
2023/07/28 07:20:35;;;;;;;3.53;2.53;;;19.60;99.90;;;;;;4948868;28;20227;-83
2023/07/28 07:23:01;;;;;;;6.50;4.00;;;19.70;99.90;;;;;;4946497;28;20216;-83
2023/07/28 07:25:27;;;;;;;4.17;3.27;;;19.80;99.90;;;;;;4963680;28;20705;-83
2023/07/28 07:27:53;;;;;;;5.23;3.60;;;20.00;99.90;;;;;;4951950;28;20308;-83
2023/07/28 07:30:19;;;;;;;8.20;4.10;;;20.00;99.90;;;;;;4962391;28;20216;-83
2023/07/28 07:32:45;;;;;;;5.33;3.67;;;20.20;99.90;;;;;;4947632;28;20311;-83
2023/07/28 07:35:11;;;;;;;6.87;4.20;;;20.30;99.90;;;;;;4966224;28;20303;-83
2023/07/28 07:37:37;;;;;;;5.77;3.33;;;20.40;99.90;;;;;;4963521;28;20670;-83
2023/07/28 07:40:03;;;;;;;3.90;2.90;;;20.50;99.90;;;;;;4946921;28;20677;-83
2023/07/28 07:42:45;;;;;;;7.13;2.43;;;20.60;99.90;;;;;;4963049;28;20228;-83
2023/07/28 07:45:11;;;;;;;4.37;3.30;;;20.40;99.90;;;;;;4965390;28;20366;-83
2023/07/28 07:47:38;;;;;;;6.30;3.27;;;20.20;99.90;;;;;;4963081;28;20199;-83
2023/07/28 07:50:05;;;;;;;7.93;3.90;;;20.10;99.90;;;;;;4963458;28;20216;-83
2023/07/28 07:52:30;;;;;;;4.60;3.20;;;20.40;99.90;;;;;;4963258;28;20228;-83
2023/07/28 07:54:56;;;;;;;2.93;2.30;;;20.80;99.90;;;;;;4963337;28;21100;-83
2023/07/28 07:57:22;;;;;;;4.73;2.30;;;21.00;99.90;;;;;;4964043;28;20343;-83
2023/07/28 07:59:48;;;;;;;3.50;2.60;;;21.00;99.90;;;;;;4963003;28;20224;-83
2023/07/28 08:02:13;;;;;;;4.73;2.57;;;20.90;99.90;;;;;;4962203;28;20337;-83
2023/07/28 08:04:39;;;;;;;6.63;2.87;;;20.80;99.90;;;;;;4962722;28;20252;-83
2023/07/28 08:07:05;;;;;;;4.33;2.67;;;20.60;99.90;;;;;;4947218;28;20661;-83
2023/07/28 08:09:30;;;;;;;5.93;3.20;;;20.50;99.90;;;;;;4961702;28;20235;-83
2023/07/28 08:11:56;;;;;;;6.43;3.13;;;20.50;99.90;;;;;;4947073;28;20643;-83
2023/07/28 08:14:22;;;;;;;6.40;3.33;;;20.60;99.90;;;;;;4961722;28;20243;-83
2023/07/28 08:16:48;;;;;;;5.00;3.60;;;20.60;99.90;;;;;;4961648;28;20220;-83
2023/07/28 08:19:14;;;;;;;3.20;2.50;;;20.80;99.90;;;;;;4947558;28;20632;-83
2023/07/28 08:21:39;;;;;;;2.97;2.37;;;20.80;99.90;;;;;;4961522;28;20327;-83
2023/07/28 08:24:05;;;;;;;2.53;1.93;;;20.90;99.90;;;;;;4962551;28;20674;-82
2023/07/28 08:26:31;;;;;;;3.33;2.50;;;20.70;99.90;;;;;;4961801;28;20225;-83
2023/07/28 08:28:57;;;;;;;2.83;2.23;;;20.50;99.90;;;;;;4966005;28;20251;-83
2023/07/28 08:31:22;;;;;;;5.03;3.40;;;20.30;99.90;;;;;;4962377;28;20290;-83
2023/07/28 08:33:48;;;;;;;3.50;2.87;;;20.30;99.90;;;;;;4962482;28;20237;-84
2023/07/28 08:36:14;;;;;;;6.10;3.50;;;20.20;99.90;;;;;;4963277;28;20660;-84
2023/07/28 08:38:40;;;;;;;3.37;2.67;;;20.30;99.90;;;;;;4961793;28;20243;-83
2023/07/28 08:41:05;;;;;;;5.57;3.60;;;20.40;99.90;;;;;;4961820;28;20260;-83
2023/07/28 08:43:35;;;;;;;5.90;3.17;;;20.40;99.90;;;;;;4962281;28;20216;-84
2023/07/28 08:46:03;;;;;;;8.40;4.00;;;20.40;99.90;;;;;;4960888;28;20224;-84
2023/07/28 08:48:29;;;;;;;9.87;5.23;;;20.30;99.90;;;;;;4946088;28;20315;-83
2023/07/28 08:50:55;;;;;;;10.20;5.47;;;20.30;99.90;;;;;;4962880;28;21022;-84
2023/07/28 08:53:20;;;;;;;8.60;5.27;;;20.30;99.90;;;;;;4961352;28;20659;-83
2023/07/28 08:55:47;;;;;;;7.83;4.17;;;20.50;99.90;;;;;;4966369;28;20221;-83
2023/07/28 08:58:21;;;;;;;6.10;3.93;;;20.80;99.90;;;;;;4963869;28;20220;-83
2023/07/28 09:00:52;;;;;;;6.97;4.53;;;20.90;99.90;;;;;;4961253;28;20220;-82
2023/07/28 09:03:18;;;;;;;6.73;5.07;;;20.90;99.90;;;;;;4962428;28;20204;-82
2023/07/28 09:05:48;;;;;;;5.10;3.90;;;20.80;99.90;;;;;;4962745;28;20251;-83
2023/07/28 09:08:18;;;;;;;5.57;3.10;;;20.80;99.90;;;;;;4960564;28;20218;-82
2023/07/28 09:10:48;;;;;;;4.83;3.23;;;20.70;99.90;;;;;;4964880;28;20223;-83
2023/07/28 09:13:16;;;;;;;4.30;3.17;;;20.90;99.90;;;;;;4964299;28;20729;-83
2023/07/28 09:15:42;;;;;;;6.00;3.37;;;20.90;99.90;;;;;;4968898;28;20220;-84
2023/07/28 09:18:15;;;;;;;4.90;3.23;;;20.90;99.90;;;;;;4964082;28;20208;-83
2023/07/28 09:20:42;;;;;;;4.53;3.27;;;20.70;99.90;;;;;;4963320;28;20412;-83
2023/07/28 09:23:09;;;;;;;5.53;3.40;;;20.80;99.90;;;;;;4961591;28;20229;-84
2023/07/28 09:25:36;;;;;;;8.03;3.43;;;21.40;99.90;;;;;;4944361;28;20227;-83
2023/07/28 09:28:02;;;;;;;3.40;2.80;;;22.10;99.90;;;;;;4968618;28;20247;-83
2023/07/28 09:30:49;;;;;;;5.50;2.88;;;23.10;99.90;;;;;;4962195;28;20204;-84
2023/07/28 09:33:32;;;;;;;6.22;3.50;;;23.10;99.90;;;;;;4945750;28;20216;-81
2023/07/28 09:36:10;;;;;;;3.50;3.10;;;23.70;99.90;;;;;;4961965;28;20188;-83
2023/07/28 09:38:41;;;;;;;5.18;2.85;;;23.80;99.90;;;;;;4960032;28;20223;-82
2023/07/28 09:41:10;;;;;;;4.63;2.85;;;23.30;99.90;;;;;;4959660;28;20279;-84
2023/07/28 09:43:40;;;;;;;3.05;2.72;;;22.70;99.90;;;;;;4960280;28;20220;-83
2023/07/28 09:46:08;;;;;;;4.25;2.95;;;22.60;99.90;;;;;;4963338;28;20208;-83
2023/07/28 09:48:37;;;;;;;3.33;2.90;;;22.40;99.90;;;;;;4961519;28;20378;-83
2023/07/28 09:51:09;;;;;;;2.95;2.50;;;22.30;99.90;;;;;;4958399;28;20285;-83
2023/07/28 09:53:45;;;;;;;2.92;2.35;;;22.50;99.90;;;;;;4959291;28;20243;-83
2023/07/28 09:56:17;;;;;;;2.88;2.58;;;22.60;99.90;;;;;;4959965;28;20285;-82
2023/07/28 09:58:50;;;;;;;3.00;2.58;;;22.40;99.90;;;;;;4961677;28;20286;-82
2023/07/28 10:01:16;;;;;;;3.97;3.08;;;22.20;99.90;;;;;;4960944;28;20228;-82
2023/07/28 10:03:43;;;;;;;4.13;3.55;;;22.40;99.90;;;;;;4943704;28;20602;-83
2023/07/28 10:06:09;;;;;;;5.82;3.55;;;22.50;99.90;;;;;;4960906;28;20197;-82
2023/07/28 10:08:35;;;;;;;5.25;3.13;;;22.60;99.90;;;;;;4960295;28;20259;-82
2023/07/28 10:11:04;;;;;;;3.65;2.85;;;22.70;99.90;;;;;;4958122;28;20304;-83
2023/07/28 10:13:40;;;;;;;3.75;3.03;;;22.60;99.90;;;;;;4960119;28;20764;-82
2023/07/28 10:16:08;;;;;;;3.53;2.75;;;22.50;99.90;;;;;;4960481;28;20307;-82
2023/07/28 10:18:34;;;;;;;3.47;2.83;;;22.50;99.90;;;;;;4958879;28;20216;-82
2023/07/28 10:21:05;;;;;;;4.82;3.13;;;22.70;99.90;;;;;;4961687;28;20670;-82
2023/07/28 10:23:35;;;;;;;3.53;2.78;;;22.60;99.90;;;;;;4960006;28;21179;-82
2023/07/28 10:26:02;;;;;;;5.35;3.10;;;22.40;99.90;;;;;;4943051;28;20564;-84
2023/07/28 10:28:38;;;;;;;4.03;3.10;;;22.40;99.90;;;;;;4961061;28;20227;-82
2023/07/28 10:31:06;;;;;;;4.93;3.35;;;22.90;99.90;;;;;;4961360;28;20216;-83
2023/07/28 10:33:38;;;;;;;3.60;3.15;;;23.60;99.90;;;;;;4960170;28;20255;-82
2023/07/28 10:36:22;;;;;;;3.20;2.28;;;23.80;99.90;;;;;;4960528;28;20212;-82
2023/07/28 10:39:14;;;;;;;2.53;2.33;;;23.50;99.90;;;;;;4961037;28;20608;-82
2023/07/28 10:42:03;;;;;;;2.88;2.55;;;23.30;99.90;;;;;;4959122;28;20248;-83
2023/07/28 10:44:29;;;;;;;3.85;2.65;;;23.10;99.90;;;;;;4961006;28;20469;-82
2023/07/28 10:46:55;;;;;;;2.40;2.20;;;23.30;99.90;;;;;;4961399;28;20311;-82
2023/07/28 10:49:20;;;;;;;3.08;2.50;;;23.80;99.90;;;;;;4959073;28;20232;-82
2023/07/28 10:51:46;;;;;;;6.57;2.72;;;23.90;99.90;;;;;;4959422;28;20236;-83
2023/07/28 10:54:16;;;;;;;4.68;2.15;;;23.60;99.90;;;;;;4960676;28;20732;-82
2023/07/28 10:56:42;;;;;;;2.58;2.38;;;24.10;99.90;;;;;;4960175;28;20243;-82
2023/07/28 10:59:08;;;;;;;7.97;3.03;;;24.10;99.90;;;;;;4961023;28;20248;-82
2023/07/28 11:01:38;;;;;;;3.58;2.08;;;24.50;99.90;;;;;;4959957;28;20569;-82
2023/07/28 11:04:08;;;;;;;2.17;1.98;;;24.80;99.90;;;;;;4959631;28;20558;-83
2023/07/28 11:06:34;;;;;;;2.95;2.35;;;24.60;99.90;;;;;;4944425;28;20473;-82
2023/07/28 11:09:00;;;;;;;4.03;2.08;;;24.10;99.90;;;;;;4961314;28;20692;-81
2023/07/28 11:11:27;;;;;;;2.20;2.00;;;24.50;99.90;;;;;;4940859;28;20785;-82
2023/07/28 11:13:54;;;;;;;2.80;2.60;;;25.00;99.90;;;;;;4956924;28;20326;-83
2023/07/28 11:16:21;;;;;;;4.38;2.45;;;25.20;99.90;;;;;;4945722;28;20366;-82
2023/07/28 11:18:46;;;;;;;2.65;2.28;;;24.80;99.90;;;;;;4960864;28;20220;-82
2023/07/28 11:21:12;;;;;;;1.60;1.50;;;24.70;99.90;;;;;;4944238;28;20904;-81
2023/07/28 11:23:39;;;;;;;2.88;1.90;;;24.70;99.90;;;;;;4944697;28;20189;-84
2023/07/28 11:26:05;;;;;;;2.22;2.03;;;25.20;99.90;;;;;;4943099;28;20225;-83
2023/07/28 11:28:32;;;;;;;2.00;1.85;;;25.80;99.90;;;;;;4960454;28;20678;-83
2023/07/28 11:30:59;;;;;;;1.85;1.67;;;26.10;99.90;;;;;;4944100;28;20271;-83
2023/07/28 11:33:25;;;;;;;4.35;1.70;;;25.80;99.90;;;;;;4958879;28;20752;-83
2023/07/28 11:35:51;;;;;;;2.97;2.03;;;25.60;99.90;;;;;;4960008;28;20185;-82
2023/07/28 11:38:17;;;;;;;3.70;2.22;;;25.90;99.90;;;;;;4962201;28;20275;-82
2023/07/28 11:40:44;;;;;;;1.50;1.40;;;26.50;99.90;;;;;;4959292;28;20220;-83
2023/07/28 11:43:10;;;;;;;3.70;2.17;;;26.60;99.90;;;;;;4959115;28;20213;-83
2023/07/28 11:45:35;;;;;;;1.83;1.73;;;26.40;99.90;;;;;;4944597;28;20714;-83
2023/07/28 11:48:05;;;;;;;2.88;1.67;;;25.50;99.90;;;;;;4965714;28;20552;-83
2023/07/28 11:50:38;;;;;;;2.15;1.88;;;25.10;99.90;;;;;;4963950;28;20264;-82
2023/07/28 11:53:06;;;;;;;1.98;1.77;;;24.90;99.90;;;;;;4964590;28;20264;-83
2023/07/28 11:55:32;;;;;;;2.67;1.65;;;24.90;99.90;;;;;;4947970;28;20228;-83
2023/07/28 11:58:01;;;;;;;5.10;2.05;;;25.00;99.90;;;;;;4962547;28;20318;-83
2023/07/28 12:00:36;;;;;;;2.25;1.90;;;25.20;99.90;;;;;;4966186;28;20197;-83
2023/07/28 12:03:10;;;;;;;2.47;2.28;;;25.50;99.90;;;;;;4965084;28;20603;-82
2023/07/28 12:05:42;;;;;;;1.60;1.50;;;25.40;99.90;;;;;;4963190;28;20753;-83
2023/07/28 12:08:08;;;;;;;2.33;1.45;;;25.30;99.90;;;;;;4965441;28;20244;-83
2023/07/28 12:10:37;;;;;;;2.50;1.48;;;24.80;99.90;;;;;;4963601;28;20743;-82
2023/07/28 12:13:07;;;;;;;1.42;1.33;;;24.70;99.90;;;;;;4962889;28;20438;-82
2023/07/28 12:15:34;;;;;;;3.97;1.90;;;24.60;99.90;;;;;;4964602;28;20231;-83
2023/07/28 12:18:06;;;;;;;1.63;1.52;;;24.10;99.90;;;;;;4963986;28;20196;-82
2023/07/28 12:20:41;;;;;;;1.88;1.75;;;24.20;99.90;;;;;;4965359;28;20478;-82
2023/07/28 12:23:08;;;;;;;4.85;1.60;;;24.60;99.90;;;;;;4946967;28;20701;-82
2023/07/28 12:25:36;;;;;;;4.22;1.92;;;24.60;99.90;;;;;;4947014;28;20248;-82
2023/07/28 12:28:02;;;;;;;1.77;1.35;;;24.80;99.90;;;;;;4964155;28;20256;-83
2023/07/28 12:30:28;;;;;;;2.25;1.42;;;24.80;99.90;;;;;;4961880;28;20655;-83
2023/07/28 12:32:54;;;;;;;2.28;1.27;;;24.90;99.90;;;;;;4962731;28;20217;-82
2023/07/28 12:35:23;;;;;;;2.03;1.40;;;24.70;99.90;;;;;;4962445;28;20545;-82
2023/07/28 12:37:50;;;;;;;1.73;1.50;;;24.40;99.90;;;;;;4960792;28;20217;-82
2023/07/28 12:40:16;;;;;;;2.15;1.58;;;24.00;99.90;;;;;;4964901;28;20658;-83
2023/07/28 12:42:42;;;;;;;2.75;1.98;;;24.30;99.90;;;;;;4963884;28;20239;-82
2023/07/28 12:45:08;;;;;;;2.10;1.30;;;24.40;99.90;;;;;;4945644;28;20212;-80
2023/07/28 12:47:34;;;;;;;2.45;1.85;;;24.70;99.90;;;;;;4963823;28;20220;-82